« Back
NWS Peachtree City, Ga » Text Product » AHN Terminal Aerodrome Forecast


Printer-friendly Version
Current Version              Previous Versions:   1  2  3  4  5  6  7  8  9  

Terminal Aerodrome Forecast

170
FTAK31 PAJN 211100 RRA
TAFAHN
TAF
PAHN 211143Z 2112/2212 32012KT P6SM SKC
     FM212200 11008KT P6SM SKC
     FM220200 VRB04KT P6SM SKC
     FM220400 31009KT P6SM SKC
      AMD LTD TO CLD VIS AND WIND=



USA.gov is the U.S. government's official web portal to all federal, state and local government web resources and services.